sensor_id;sensor_type;location;lat;lon;timestamp;pressure;altitude;pressure_sealevel;temperature;humidity
50867;BME280;36839;51.946;21.002;2022-09-20T00:01:22;99622.48;;;8.77;100.00
50867;BME280;36839;51.946;21.002;2022-09-20T00:03:51;99622.48;;;8.77;100.00
50867;BME280;36839;51.946;21.002;2022-09-20T00:06:21;99620.56;;;8.75;100.00
50867;BME280;36839;51.946;21.002;2022-09-20T00:08:51;99623.02;;;8.69;100.00
50867;BME280;36839;51.946;21.002;2022-09-20T00:11:21;99620.83;;;8.66;100.00
50867;BME280;36839;51.946;21.002;2022-09-20T00:13:52;99624.13;;;8.63;100.00
50867;BME280;36839;51.946;21.002;2022-09-20T00:16:24;99625.48;;;8.58;100.00
50867;BME280;36839;51.946;21.002;2022-09-20T00:18:52;99625.48;;;8.58;100.00
50867;BME280;36839;51.946;21.002;2022-09-20T00:21:22;99629.06;;;8.56;100.00
50867;BME280;36839;51.946;21.002;2022-09-20T00:23:50;99634.57;;;8.53;100.00
50867;BME280;36839;51.946;21.002;2022-09-20T00:26:20;99631.52;;;8.52;100.00
50867;BME280;36839;51.946;21.002;2022-09-20T00:28:52;99633.16;;;8.48;100.00
50867;BME280;36839;51.946;21.002;2022-09-20T00:31:23;99633.16;;;8.48;100.00
50867;BME280;36839;51.946;21.002;2022-09-20T00:33:58;99641.39;;;8.43;100.00
50867;BME280;36839;51.946;21.002;2022-09-20T00:36:41;99641.39;;;8.43;100.00
50867;BME280;36839;51.946;21.002;2022-09-20T00:39:14;99635.89;;;8.38;100.00
50867;BME280;36839;51.946;21.002;2022-09-20T00:41:41;99635.89;;;8.38;100.00
50867;BME280;36839;51.946;21.002;2022-09-20T00:47:24;99638.58;;;8.33;100.00
50867;BME280;36839;51.946;21.002;2022-09-20T00:49:50;99631.42;;;8.24;100.00
50867;BME280;36839;51.946;21.002;2022-09-20T00:52:18;99631.42;;;8.24;100.00
50867;BME280;36839;51.946;21.002;2022-09-20T00:54:45;99636.34;;;8.20;100.00
50867;BME280;36839;51.946;21.002;2022-09-20T00:57:13;99634.10;;;8.14;100.00
50867;BME280;36839;51.946;21.002;2022-09-20T00:59:42;99635.47;;;8.12;100.00
50867;BME280;36839;51.946;21.002;2022-09-20T01:02:22;99636.84;;;8.09;100.00
50867;BME280;36839;51.946;21.002;2022-09-20T01:04:49;99636.84;;;8.09;100.00
50867;BME280;36839;51.946;21.002;2022-09-20T01:07:19;99640.66;;;8.03;100.00
50867;BME280;36839;51.946;21.002;2022-09-20T01:09:49;99634.87;;;7.99;100.00
50867;BME280;36839;51.946;21.002;2022-09-20T01:12:20;99640.61;;;7.95;100.00
50867;BME280;36839;51.946;21.002;2022-09-20T01:14:51;99640.61;;;7.95;100.00
50867;BME280;36839;51.946;21.002;2022-09-20T01:17:21;99640.33;;;7.92;100.00
50867;BME280;36839;51.946;21.002;2022-09-20T01:25:46;99641.15;;;7.87;100.00
50867;BME280;36839;51.946;21.002;2022-09-20T01:28:08;99646.61;;;7.85;100.00
50867;BME280;36839;51.946;21.002;2022-09-20T01:30:42;99646.05;;;7.83;100.00
50867;BME280;36839;51.946;21.002;2022-09-20T01:35:49;99644.13;;;7.78;100.00
50867;BME280;36839;51.946;21.002;2022-09-20T01:38:29;99644.13;;;7.78;100.00
50867;BME280;36839;51.946;21.002;2022-09-20T01:41:08;99649.57;;;7.73;100.00
50867;BME280;36839;51.946;21.002;2022-09-20T01:43:51;99650.94;;;7.70;100.00
50867;BME280;36839;51.946;21.002;2022-09-20T01:46:31;99650.94;;;7.68;100.00
50867;BME280;36839;51.946;21.002;2022-09-20T01:49:19;99650.94;;;7.68;100.00
50867;BME280;36839;51.946;21.002;2022-09-20T02:01:26;99654.44;;;7.58;100.00
50867;BME280;36839;51.946;21.002;2022-09-20T02:08:47;99661.27;;;7.56;100.00
50867;BME280;36839;51.946;21.002;2022-09-20T02:11:22;99663.47;;;7.56;100.00
50867;BME280;36839;51.946;21.002;2022-09-20T02:14:03;99663.47;;;7.56;100.00
50867;BME280;36839;51.946;21.002;2022-09-20T02:16:44;99669.23;;;7.55;100.00
50867;BME280;36839;51.946;21.002;2022-09-20T02:25:28;99665.45;;;7.61;100.00
50867;BME280;36839;51.946;21.002;2022-09-20T02:28:22;99664.62;;;7.60;100.00
50867;BME280;36839;51.946;21.002;2022-09-20T02:30:49;99664.62;;;7.60;100.00
50867;BME280;36839;51.946;21.002;2022-09-20T02:33:43;99668.42;;;7.57;100.00
50867;BME280;36839;51.946;21.002;2022-09-20T02:44:33;99667.52;;;7.46;100.00
50867;BME280;36839;51.946;21.002;2022-09-20T02:58:15;99667.22;;;7.40;100.00
50867;BME280;36839;51.946;21.002;2022-09-20T03:07:00;99678.70;;;7.34;100.00
50867;BME280;36839;51.946;21.002;2022-09-20T03:12:22;99683.09;;;7.33;100.00
50867;BME280;36839;51.946;21.002;2022-09-20T03:15:14;99682.53;;;7.31;100.00
50867;BME280;36839;51.946;21.002;2022-09-20T03:17:53;99686.06;;;7.29;100.00
50867;BME280;36839;51.946;21.002;2022-09-20T03:23:36;99681.63;;;7.20;100.00
50867;BME280;36839;51.946;21.002;2022-09-20T03:25:54;99680.20;;;7.18;100.00
50867;BME280;36839;51.946;21.002;2022-09-20T03:42:21;99675.40;;;7.32;100.00
50867;BME280;36839;51.946;21.002;2022-09-20T03:45:03;99675.40;;;7.32;100.00
50867;BME280;36839;51.946;21.002;2022-09-20T03:47:47;99684.53;;;7.40;100.00
50867;BME280;36839;51.946;21.002;2022-09-20T03:56:05;99690.13;;;7.56;100.00
50867;BME280;36839;51.946;21.002;2022-09-20T04:13:30;99708.94;;;7.71;100.00
50867;BME280;36839;51.946;21.002;2022-09-20T04:18:47;99707.31;;;7.76;100.00
50867;BME280;36839;51.946;21.002;2022-09-20T04:24:28;99715.33;;;7.80;100.00
50867;BME280;36839;51.946;21.002;2022-09-20T04:26:55;99716.16;;;7.83;100.00
50867;BME280;36839;51.946;21.002;2022-09-20T04:38:02;99723.09;;;7.90;100.00
50867;BME280;36839;51.946;21.002;2022-09-20T05:00:23;99753.20;;;8.12;100.00
50867;BME280;36839;51.946;21.002;2022-09-20T05:05:40;99747.70;;;8.15;100.00
50867;BME280;36839;51.946;21.002;2022-09-20T05:08:19;99766.73;;;8.19;100.00
50867;BME280;36839;51.946;21.002;2022-09-20T05:13:33;99765.91;;;8.23;100.00
50867;BME280;36839;51.946;21.002;2022-09-20T05:16:06;99768.98;;;8.27;100.00
50867;BME280;36839;51.946;21.002;2022-09-20T05:21:38;99769.27;;;8.33;100.00
50867;BME280;36839;51.946;21.002;2022-09-20T05:27:15;99781.73;;;8.38;100.00
50867;BME280;36839;51.946;21.002;2022-09-20T05:30:02;99776.79;;;8.43;100.00
50867;BME280;36839;51.946;21.002;2022-09-20T05:32:56;99779.85;;;8.46;100.00
50867;BME280;36839;51.946;21.002;2022-09-20T05:38:29;99783.44;;;8.49;100.00
50867;BME280;36839;51.946;21.002;2022-09-20T05:49:18;99804.91;;;8.52;100.00
50867;BME280;36839;51.946;21.002;2022-09-20T06:00:14;99813.77;;;8.59;100.00
50867;BME280;36839;51.946;21.002;2022-09-20T06:06:02;99804.13;;;8.62;100.00
50867;BME280;36839;51.946;21.002;2022-09-20T06:09:19;99813.27;;;8.68;100.00
50867;BME280;36839;51.946;21.002;2022-09-20T06:17:21;99810.87;;;8.84;100.00
50867;BME280;36839;51.946;21.002;2022-09-20T06:22:32;99823.27;;;8.86;100.00
50867;BME280;36839;51.946;21.002;2022-09-20T06:25:12;99818.58;;;8.84;100.00
50867;BME280;36839;51.946;21.002;2022-09-20T06:28:22;99818.58;;;8.84;100.00
50867;BME280;36839;51.946;21.002;2022-09-20T06:30:19;99812.28;;;8.94;100.00
50867;BME280;36839;51.946;21.002;2022-09-20T06:32:59;99821.41;;;9.05;100.00
50867;BME280;36839;51.946;21.002;2022-09-20T06:35:37;99827.20;;;9.08;100.00
50867;BME280;36839;51.946;21.002;2022-09-20T06:40:54;99825.58;;;9.15;100.00
50867;BME280;36839;51.946;21.002;2022-09-20T06:43:39;99825.02;;;9.18;100.00
50867;BME280;36839;51.946;21.002;2022-09-20T06:46:08;99825.02;;;9.18;100.00
50867;BME280;36839;51.946;21.002;2022-09-20T06:48:36;99833.63;;;9.32;100.00
50867;BME280;36839;51.946;21.002;2022-09-20T06:51:11;99833.34;;;9.31;100.00
50867;BME280;36839;51.946;21.002;2022-09-20T06:53:40;99834.97;;;9.27;100.00
50867;BME280;36839;51.946;21.002;2022-09-20T06:56:13;99834.97;;;9.27;100.00
50867;BME280;36839;51.946;21.002;2022-09-20T06:58:41;99838.33;;;9.39;100.00
50867;BME280;36839;51.946;21.002;2022-09-20T07:01:08;99841.08;;;9.44;100.00
50867;BME280;36839;51.946;21.002;2022-09-20T07:03:39;99840.53;;;9.47;100.00
50867;BME280;36839;51.946;21.002;2022-09-20T07:06:07;99840.53;;;9.47;100.00
50867;BME280;36839;51.946;21.002;2022-09-20T07:08:34;99848.80;;;9.44;100.00
50867;BME280;36839;51.946;21.002;2022-09-20T07:11:06;99851.86;;;9.48;100.00
50867;BME280;36839;51.946;21.002;2022-09-20T07:13:38;99857.63;;;9.44;100.00
50867;BME280;36839;51.946;21.002;2022-09-20T07:16:13;99853.23;;;9.51;100.00
50867;BME280;36839;51.946;21.002;2022-09-20T07:18:38;99852.43;;;9.63;100.00
50867;BME280;36839;51.946;21.002;2022-09-20T07:21:10;99855.47;;;9.74;100.00
50867;BME280;36839;51.946;21.002;2022-09-20T07:23:38;99858.52;;;9.83;100.00
50867;BME280;36839;51.946;21.002;2022-09-20T07:26:15;99858.52;;;9.83;100.00
50867;BME280;36839;51.946;21.002;2022-09-20T07:28:40;99864.31;;;9.94;100.00
50867;BME280;36839;51.946;21.002;2022-09-20T07:31:08;99865.17;;;10.05;100.00
50867;BME280;36839;51.946;21.002;2022-09-20T07:33:34;99876.20;;;10.17;100.00
50867;BME280;36839;51.946;21.002;2022-09-20T07:36:05;99874.03;;;10.24;100.00
50867;BME280;36839;51.946;21.002;2022-09-20T07:38:36;99883.37;;;10.21;100.00
50867;BME280;36839;51.946;21.002;2022-09-20T07:41:04;99889.17;;;10.17;100.00
50867;BME280;36839;51.946;21.002;2022-09-20T07:43:33;99886.69;;;10.18;100.00
50867;BME280;36839;51.946;21.002;2022-09-20T07:46:00;99887.52;;;10.16;100.00
50867;BME280;36839;51.946;21.002;2022-09-20T07:48:32;99887.52;;;10.16;100.00
50867;BME280;36839;51.946;21.002;2022-09-20T07:51:04;99901.86;;;10.20;100.00
50867;BME280;36839;51.946;21.002;2022-09-20T07:53:35;99904.91;;;10.19;100.00
50867;BME280;36839;51.946;21.002;2022-09-20T07:56:04;99907.98;;;10.25;100.00
50867;BME280;36839;51.946;21.002;2022-09-20T07:58:34;99902.17;;;10.29;100.00
50867;BME280;36839;51.946;21.002;2022-09-20T08:01:10;99911.84;;;10.34;100.00
50867;BME280;36839;51.946;21.002;2022-09-20T08:03:41;99911.84;;;10.34;100.00
50867;BME280;36839;51.946;21.002;2022-09-20T08:06:15;99915.69;;;10.41;100.00
50867;BME280;36839;51.946;21.002;2022-09-20T08:08:44;99915.14;;;10.49;100.00
50867;BME280;36839;51.946;21.002;2022-09-20T08:11:16;99915.14;;;10.49;100.00
50867;BME280;36839;51.946;21.002;2022-09-20T08:13:47;99913.76;;;10.49;100.00
50867;BME280;36839;51.946;21.002;2022-09-20T08:16:16;99917.35;;;10.62;100.00
50867;BME280;36839;51.946;21.002;2022-09-20T08:18:47;99917.35;;;10.62;100.00
50867;BME280;36839;51.946;21.002;2022-09-20T08:21:17;99922.86;;;10.59;100.00
50867;BME280;36839;51.946;21.002;2022-09-20T08:23:46;99919.27;;;10.64;100.00
50867;BME280;36839;51.946;21.002;2022-09-20T08:26:18;99919.27;;;10.72;100.00
50867;BME280;36839;51.946;21.002;2022-09-20T08:28:47;99923.13;;;10.73;100.00
50867;BME280;36839;51.946;21.002;2022-09-20T08:31:17;99930.03;;;10.68;100.00
50867;BME280;36839;51.946;21.002;2022-09-20T08:33:50;99920.09;;;10.59;100.00
50867;BME280;36839;51.946;21.002;2022-09-20T08:36:22;99920.09;;;10.59;100.00
50867;BME280;36839;51.946;21.002;2022-09-20T08:38:50;99935.00;;;10.61;100.00
50867;BME280;36839;51.946;21.002;2022-09-20T08:41:31;99927.02;;;10.62;100.00
50867;BME280;36839;51.946;21.002;2022-09-20T08:46:33;99931.67;;;10.77;100.00
50867;BME280;36839;51.946;21.002;2022-09-20T08:49:03;99933.36;;;10.73;100.00
50867;BME280;36839;51.946;21.002;2022-09-20T08:51:35;99945.77;;;10.68;100.00
50867;BME280;36839;51.946;21.002;2022-09-20T08:54:03;99945.77;;;10.68;100.00
50867;BME280;36839;51.946;21.002;2022-09-20T08:56:35;99950.49;;;10.54;100.00
50867;BME280;36839;51.946;21.002;2022-09-20T08:59:04;99947.19;;;10.45;100.00
50867;BME280;36839;51.946;21.002;2022-09-20T09:01:32;99947.19;;;10.45;100.00
50867;BME280;36839;51.946;21.002;2022-09-20T09:04:06;99951.86;;;10.42;100.00
50867;BME280;36839;51.946;21.002;2022-09-20T09:06:29;99951.86;;;10.42;100.00
50867;BME280;36839;51.946;21.002;2022-09-20T09:08:58;99955.72;;;10.41;100.00
50867;BME280;36839;51.946;21.002;2022-09-20T09:11:26;99949.12;;;10.44;100.00
50867;BME280;36839;51.946;21.002;2022-09-20T09:13:55;99951.58;;;10.51;100.00
50867;BME280;36839;51.946;21.002;2022-09-20T09:16:25;99948.53;;;10.60;100.00
50867;BME280;36839;51.946;21.002;2022-09-20T09:18:52;99955.72;;;10.58;100.00
50867;BME280;36839;51.946;21.002;2022-09-20T09:21:28;99953.53;;;10.71;100.00
50867;BME280;36839;51.946;21.002;2022-09-20T09:24:05;99953.53;;;10.71;100.00
50867;BME280;36839;51.946;21.002;2022-09-20T09:26:40;99945.20;;;10.91;100.00
50867;BME280;36839;51.946;21.002;2022-09-20T09:31:45;99954.51;;;11.28;100.00
50867;BME280;36839;51.946;21.002;2022-09-20T09:34:33;99953.83;;;11.54;100.00
50867;BME280;36839;51.946;21.002;2022-09-20T09:37:01;99953.83;;;11.54;100.00
50867;BME280;36839;51.946;21.002;2022-09-20T09:39:31;99961.81;;;11.63;100.00
50867;BME280;36839;51.946;21.002;2022-09-20T09:42:24;99961.81;;;11.63;100.00
50867;BME280;36839;51.946;21.002;2022-09-20T09:44:32;99961.49;;;11.80;100.00
50867;BME280;36839;51.946;21.002;2022-09-20T09:46:59;99960.61;;;11.90;100.00
50867;BME280;36839;51.946;21.002;2022-09-20T09:49:29;99967.00;;;11.88;100.00
50867;BME280;36839;51.946;21.002;2022-09-20T09:54:50;99958.88;;;12.04;100.00
50867;BME280;36839;51.946;21.002;2022-09-20T10:00:18;99966.20;;;11.80;100.00
50867;BME280;36839;51.946;21.002;2022-09-20T10:03:51;99968.42;;;11.75;100.00
50867;BME280;36839;51.946;21.002;2022-09-20T10:11:02;99968.36;;;11.90;100.00
50867;BME280;36839;51.946;21.002;2022-09-20T10:19:12;99965.50;;;12.03;100.00
50867;BME280;36839;51.946;21.002;2022-09-20T10:24:28;99966.60;;;12.07;100.00
50867;BME280;36839;51.946;21.002;2022-09-20T10:32:50;99979.33;;;12.08;100.00
50867;BME280;36839;51.946;21.002;2022-09-20T10:38:40;99983.72;;;12.12;100.00
50867;BME280;36839;51.946;21.002;2022-09-20T10:41:22;99983.72;;;12.12;100.00
50867;BME280;36839;51.946;21.002;2022-09-20T10:55:33;99976.13;;;12.67;100.00
50867;BME280;36839;51.946;21.002;2022-09-20T11:08:40;99995.43;;;12.77;100.00
50867;BME280;36839;51.946;21.002;2022-09-20T11:11:11;99995.43;;;12.77;100.00
50867;BME280;36839;51.946;21.002;2022-09-20T11:13:55;99983.38;;;12.60;100.00
50867;BME280;36839;51.946;21.002;2022-09-20T11:16:23;99979.06;;;12.46;100.00
50867;BME280;36839;51.946;21.002;2022-09-20T11:19:04;99976.03;;;12.45;100.00
50867;BME280;36839;51.946;21.002;2022-09-20T11:21:38;99985.16;;;12.46;100.00
50867;BME280;36839;51.946;21.002;2022-09-20T11:26:50;99982.45;;;12.38;100.00
50867;BME280;36839;51.946;21.002;2022-09-20T11:31:54;99990.86;;;12.59;100.00
50867;BME280;36839;51.946;21.002;2022-09-20T11:34:30;99990.86;;;12.59;100.00
50867;BME280;36839;51.946;21.002;2022-09-20T11:37:01;99990.75;;;12.75;100.00
50867;BME280;36839;51.946;21.002;2022-09-20T11:39:52;99994.41;;;12.70;97.13
50867;BME280;36839;51.946;21.002;2022-09-20T11:42:18;99994.41;;;12.70;97.13
50867;BME280;36839;51.946;21.002;2022-09-20T11:44:47;99993.92;;;12.92;100.00
50867;BME280;36839;51.946;21.002;2022-09-20T11:47:21;99991.09;;;12.97;100.00
50867;BME280;36839;51.946;21.002;2022-09-20T11:58:08;99987.97;;;13.81;98.12
50867;BME280;36839;51.946;21.002;2022-09-20T12:00:42;99988.17;;;13.65;95.18
50867;BME280;36839;51.946;21.002;2022-09-20T12:03:17;99987.22;;;13.51;92.90
50867;BME280;36839;51.946;21.002;2022-09-20T12:05:40;99986.09;;;13.76;97.04
50867;BME280;36839;51.946;21.002;2022-09-20T12:08:19;99993.86;;;13.53;92.08
50867;BME280;36839;51.946;21.002;2022-09-20T12:10:57;99984.84;;;13.63;94.60
50867;BME280;36839;51.946;21.002;2022-09-20T12:13:23;99979.16;;;13.52;93.45
50867;BME280;36839;51.946;21.002;2022-09-20T12:16:11;99979.16;;;13.52;93.45
50867;BME280;36839;51.946;21.002;2022-09-20T12:18:45;99980.97;;;13.86;94.80
50867;BME280;36839;51.946;21.002;2022-09-20T12:21:13;99991.70;;;14.11;94.99
50867;BME280;36839;51.946;21.002;2022-09-20T12:23:58;99980.80;;;14.17;89.10
50867;BME280;36839;51.946;21.002;2022-09-20T12:29:00;99983.78;;;14.40;88.35
50867;BME280;36839;51.946;21.002;2022-09-20T12:39:14;99965.90;;;14.48;86.74
50867;BME280;36839;51.946;21.002;2022-09-20T12:58:17;99959.80;;;15.11;78.71
50867;BME280;36839;51.946;21.002;2022-09-20T13:03:35;99952.68;;;15.63;76.68
50867;BME280;36839;51.946;21.002;2022-09-20T13:08:44;99959.98;;;15.59;77.84
50867;BME280;36839;51.946;21.002;2022-09-20T13:19:22;99969.59;;;15.09;77.55
50867;BME280;36839;51.946;21.002;2022-09-20T13:22:02;99966.70;;;15.14;76.29
50867;BME280;36839;51.946;21.002;2022-09-20T13:24:45;99966.31;;;15.21;76.67
50867;BME280;36839;51.946;21.002;2022-09-20T13:27:18;99966.31;;;15.21;76.67
50867;BME280;36839;51.946;21.002;2022-09-20T13:29:48;99967.95;;;15.22;77.75
50867;BME280;36839;51.946;21.002;2022-09-20T13:32:27;99969.15;;;15.18;76.43
50867;BME280;36839;51.946;21.002;2022-09-20T13:37:59;99964.80;;;15.12;78.30
50867;BME280;36839;51.946;21.002;2022-09-20T13:40:33;99968.44;;;15.40;78.17
50867;BME280;36839;51.946;21.002;2022-09-20T13:43:04;99968.44;;;15.40;78.17
50867;BME280;36839;51.946;21.002;2022-09-20T13:45:34;99970.45;;;15.37;77.45
50867;BME280;36839;51.946;21.002;2022-09-20T13:48:07;99988.75;;;14.78;77.52
50867;BME280;36839;51.946;21.002;2022-09-20T13:50:34;99982.91;;;14.63;80.83
50867;BME280;36839;51.946;21.002;2022-09-20T13:53:14;99978.71;;;14.47;81.12
50867;BME280;36839;51.946;21.002;2022-09-20T13:55:42;99978.71;;;14.47;81.12
50867;BME280;36839;51.946;21.002;2022-09-20T13:58:31;99981.56;;;14.23;82.83
50867;BME280;36839;51.946;21.002;2022-09-20T14:01:02;99975.77;;;14.19;84.04
50867;BME280;36839;51.946;21.002;2022-09-20T14:03:34;99975.77;;;14.19;84.04
50867;BME280;36839;51.946;21.002;2022-09-20T14:06:12;99976.52;;;14.63;82.60
50867;BME280;36839;51.946;21.002;2022-09-20T14:08:45;99979.39;;;14.90;81.53
50867;BME280;36839;51.946;21.002;2022-09-20T14:11:26;99973.06;;;15.17;81.42
50867;BME280;36839;51.946;21.002;2022-09-20T14:13:59;99973.06;;;15.17;81.42
50867;BME280;36839;51.946;21.002;2022-09-20T14:16:40;99978.59;;;15.63;80.79
50867;BME280;36839;51.946;21.002;2022-09-20T14:19:06;99970.97;;;15.94;79.78
50867;BME280;36839;51.946;21.002;2022-09-20T14:21:34;99966.06;;;16.02;77.68
50867;BME280;36839;51.946;21.002;2022-09-20T14:26:54;99966.88;;;16.03;74.02
50867;BME280;36839;51.946;21.002;2022-09-20T14:34:59;99974.03;;;16.06;73.56
50867;BME280;36839;51.946;21.002;2022-09-20T14:37:44;99981.61;;;15.78;75.14
50867;BME280;36839;51.946;21.002;2022-09-20T14:40:23;99981.61;;;15.78;75.14
50867;BME280;36839;51.946;21.002;2022-09-20T14:42:59;99965.13;;;15.52;76.30
50867;BME280;36839;51.946;21.002;2022-09-20T14:45:29;99971.39;;;15.46;75.96
50867;BME280;36839;51.946;21.002;2022-09-20T14:50:39;99966.68;;;15.30;76.22
50867;BME280;36839;51.946;21.002;2022-09-20T14:53:23;99973.13;;;15.28;76.47
50867;BME280;36839;51.946;21.002;2022-09-20T15:01:35;99974.08;;;15.07;74.18
50867;BME280;36839;51.946;21.002;2022-09-20T15:04:08;99977.56;;;14.99;75.04
50867;BME280;36839;51.946;21.002;2022-09-20T15:06:37;99974.34;;;14.92;77.60
50867;BME280;36839;51.946;21.002;2022-09-20T15:09:09;99980.91;;;14.82;81.33
50867;BME280;36839;51.946;21.002;2022-09-20T15:11:38;99980.91;;;14.82;81.33
50867;BME280;36839;51.946;21.002;2022-09-20T15:14:06;99979.20;;;14.68;82.64
50867;BME280;36839;51.946;21.002;2022-09-20T15:16:36;99979.20;;;14.68;82.64
50867;BME280;36839;51.946;21.002;2022-09-20T15:19:02;100000.40;;;14.26;86.96
50867;BME280;36839;51.946;21.002;2022-09-20T15:21:31;100017.11;;;13.81;79.60
50867;BME280;36839;51.946;21.002;2022-09-20T15:24:01;100009.95;;;13.53;82.36
50867;BME280;36839;51.946;21.002;2022-09-20T15:26:29;100009.95;;;13.53;82.36
50867;BME280;36839;51.946;21.002;2022-09-20T15:29:01;100011.77;;;12.78;91.77
50867;BME280;36839;51.946;21.002;2022-09-20T15:31:27;100016.09;;;12.61;94.17
50867;BME280;36839;51.946;21.002;2022-09-20T15:33:55;100009.29;;;12.40;94.29
50867;BME280;36839;51.946;21.002;2022-09-20T15:36:29;100009.29;;;12.40;94.29
50867;BME280;36839;51.946;21.002;2022-09-20T15:38:57;100016.28;;;12.30;94.72
50867;BME280;36839;51.946;21.002;2022-09-20T15:41:27;100013.37;;;12.09;95.22
50867;BME280;36839;51.946;21.002;2022-09-20T15:43:54;100010.08;;;12.01;95.77
50867;BME280;36839;51.946;21.002;2022-09-20T15:46:24;100010.08;;;12.01;95.77
50867;BME280;36839;51.946;21.002;2022-09-20T15:48:55;100015.45;;;11.85;99.14
50867;BME280;36839;51.946;21.002;2022-09-20T15:51:25;100015.45;;;11.85;99.14
50867;BME280;36839;51.946;21.002;2022-09-20T15:53:59;100027.07;;;11.72;98.99
50867;BME280;36839;51.946;21.002;2022-09-20T15:56:37;100031.25;;;11.67;100.00
50867;BME280;36839;51.946;21.002;2022-09-20T15:59:05;100033.48;;;11.60;100.00
50867;BME280;36839;51.946;21.002;2022-09-20T16:01:41;100033.48;;;11.60;100.00
50867;BME280;36839;51.946;21.002;2022-09-20T16:04:13;100047.35;;;11.50;100.00
50867;BME280;36839;51.946;21.002;2022-09-20T16:06:45;100046.00;;;11.39;99.93
50867;BME280;36839;51.946;21.002;2022-09-20T16:09:17;100059.55;;;11.38;100.00
50867;BME280;36839;51.946;21.002;2022-09-20T16:11:46;100063.15;;;11.31;100.00
50867;BME280;36839;51.946;21.002;2022-09-20T16:14:13;100063.15;;;11.31;100.00
50867;BME280;36839;51.946;21.002;2022-09-20T16:16:40;100062.86;;;11.33;100.00
50867;BME280;36839;51.946;21.002;2022-09-20T16:19:10;100075.04;;;11.24;100.00
50867;BME280;36839;51.946;21.002;2022-09-20T16:21:44;100069.25;;;11.21;100.00
50867;BME280;36839;51.946;21.002;2022-09-20T16:24:17;100077.81;;;11.14;100.00
50867;BME280;36839;51.946;21.002;2022-09-20T16:26:44;100069.81;;;11.10;100.00
50867;BME280;36839;51.946;21.002;2022-09-20T16:29:13;100072.84;;;11.06;100.00
50867;BME280;36839;51.946;21.002;2022-09-20T16:31:43;100072.84;;;11.06;100.00
50867;BME280;36839;51.946;21.002;2022-09-20T16:34:20;100075.07;;;11.01;100.00
50867;BME280;36839;51.946;21.002;2022-09-20T16:36:50;100078.11;;;10.92;100.00
50867;BME280;36839;51.946;21.002;2022-09-20T16:39:18;100074.23;;;10.85;100.00
50867;BME280;36839;51.946;21.002;2022-09-20T16:41:49;100079.22;;;10.81;100.00
50867;BME280;36839;51.946;21.002;2022-09-20T16:44:17;100075.63;;;10.80;100.00
50867;BME280;36839;51.946;21.002;2022-09-20T16:46:46;100078.64;;;10.79;100.00
50867;BME280;36839;51.946;21.002;2022-09-20T16:49:13;100088.31;;;10.76;100.00
50867;BME280;36839;51.946;21.002;2022-09-20T16:51:47;100088.06;;;10.91;100.00
50867;BME280;36839;51.946;21.002;2022-09-20T16:54:17;100086.67;;;10.93;100.00
50867;BME280;36839;51.946;21.002;2022-09-20T16:56:50;100088.31;;;10.89;100.00
50867;BME280;36839;51.946;21.002;2022-09-20T16:59:18;100090.27;;;10.81;100.00
50867;BME280;36839;51.946;21.002;2022-09-20T17:01:48;100097.44;;;10.72;100.00
50867;BME280;36839;51.946;21.002;2022-09-20T17:04:20;100097.44;;;10.72;100.00
50867;BME280;36839;51.946;21.002;2022-09-20T17:06:48;100099.34;;;10.69;100.00
50867;BME280;36839;51.946;21.002;2022-09-20T17:09:18;100110.93;;;10.58;100.00
50867;BME280;36839;51.946;21.002;2022-09-20T17:11:47;100115.63;;;10.57;100.00
50867;BME280;36839;51.946;21.002;2022-09-20T17:14:20;100114.52;;;10.56;100.00
50867;BME280;36839;51.946;21.002;2022-09-20T17:16:47;100112.84;;;10.50;100.00
50867;BME280;36839;51.946;21.002;2022-09-20T17:19:18;100119.47;;;10.46;100.00
50867;BME280;36839;51.946;21.002;2022-09-20T17:21:49;100119.47;;;10.46;100.00
50867;BME280;36839;51.946;21.002;2022-09-20T17:24:21;100116.99;;;10.42;100.00
50867;BME280;36839;51.946;21.002;2022-09-20T17:26:59;100122.20;;;10.34;100.00
50867;BME280;36839;51.946;21.002;2022-09-20T17:29:30;100121.90;;;10.25;100.00
50867;BME280;36839;51.946;21.002;2022-09-20T17:31:56;100121.90;;;10.25;100.00
50867;BME280;36839;51.946;21.002;2022-09-20T17:34:34;100122.66;;;10.18;100.00
50867;BME280;36839;51.946;21.002;2022-09-20T17:37:00;100119.03;;;10.12;100.00
50867;BME280;36839;51.946;21.002;2022-09-20T17:39:28;100133.39;;;10.12;100.00
50867;BME280;36839;51.946;21.002;2022-09-20T17:41:58;100133.39;;;10.12;100.00
50867;BME280;36839;51.946;21.002;2022-09-20T17:44:26;100138.08;;;10.11;100.00
50867;BME280;36839;51.946;21.002;2022-09-20T17:46:54;100140.56;;;10.10;100.00
50867;BME280;36839;51.946;21.002;2022-09-20T17:49:23;100140.56;;;10.10;100.00
50867;BME280;36839;51.946;21.002;2022-09-20T17:51:53;100141.34;;;10.03;100.00
50867;BME280;36839;51.946;21.002;2022-09-20T17:54:23;100149.07;;;10.01;100.00
50867;BME280;36839;51.946;21.002;2022-09-20T17:56:53;100152.94;;;10.00;100.00
50867;BME280;36839;51.946;21.002;2022-09-20T17:59:22;100152.94;;;10.00;100.00
50867;BME280;36839;51.946;21.002;2022-09-20T18:01:50;100141.61;;;9.96;100.00
50867;BME280;36839;51.946;21.002;2022-09-20T18:04:19;100144.92;;;9.96;100.00
50867;BME280;36839;51.946;21.002;2022-09-20T18:06:50;100146.03;;;9.95;100.00
50867;BME280;36839;51.946;21.002;2022-09-20T18:09:22;100146.03;;;9.95;100.00
50867;BME280;36839;51.946;21.002;2022-09-20T18:11:55;100150.13;;;9.90;100.00
50867;BME280;36839;51.946;21.002;2022-09-20T18:14:24;100148.74;;;9.90;100.00
50867;BME280;36839;51.946;21.002;2022-09-20T18:16:54;100148.74;;;9.90;100.00